Time;durP1;ratioP1;P1;durP2;ratioP2;P2;SDS_P1;SDS_P2;PMS_P1;PMS_P2;Temp;Humidity;BMP_temperature;BMP_pressure;BME280_temperature;BME280_humidity;BME280_pressure;Samples;Min_cycle;Max_cycle;Signal;HPM_P1;HPM_P2
2023/06/03 00:00:05;;;;;;;5.22;1.20;;;12.20;99.90;;;;;;5029601;28;20128;-73
2023/06/03 00:02:31;;;;;;;3.60;1.25;;;12.20;99.90;;;;;;5018003;28;20435;-72
2023/06/03 00:05:00;;;;;;;3.65;1.20;;;12.20;99.90;;;;;;5018960;28;20128;-73
2023/06/03 00:07:27;;;;;;;2.35;1.05;;;12.40;99.90;;;;;;5003720;28;20101;-73
2023/06/03 00:09:53;;;;;;;4.05;1.10;;;12.10;99.90;;;;;;5017286;28;20053;-72
2023/06/03 00:12:20;;;;;;;3.38;1.15;;;12.00;99.90;;;;;;5018201;28;21804;-72
2023/06/03 00:14:46;;;;;;;3.90;1.27;;;12.00;99.90;;;;;;5013674;28;20046;-72
2023/06/03 00:17:12;;;;;;;3.70;1.02;;;12.00;99.90;;;;;;5016553;28;20107;-72
2023/06/03 00:19:41;;;;;;;3.40;1.00;;;11.90;99.90;;;;;;5010291;28;20460;-73
2023/06/03 00:22:07;;;;;;;4.15;1.00;;;11.90;99.90;;;;;;5015748;28;20084;-73
2023/06/03 00:24:33;;;;;;;4.00;1.02;;;11.80;99.90;;;;;;5015897;28;20124;-72
2023/06/03 00:26:59;;;;;;;5.30;1.27;;;11.80;99.90;;;;;;5014684;28;20052;-73
2023/06/03 00:29:26;;;;;;;3.83;1.10;;;11.80;99.90;;;;;;5015451;28;20131;-73
2023/06/03 00:31:52;;;;;;;3.38;1.10;;;11.80;99.90;;;;;;5029206;28;20073;-72
2023/06/03 00:34:17;;;;;;;5.15;1.23;;;11.70;99.90;;;;;;5021488;28;20041;-73
2023/06/03 00:36:43;;;;;;;4.80;1.05;;;11.70;99.90;;;;;;5012813;28;20050;-73
2023/06/03 00:39:10;;;;;;;4.15;1.20;;;11.60;99.90;;;;;;5018699;28;20049;-74
2023/06/03 00:41:36;;;;;;;3.92;1.30;;;11.70;99.90;;;;;;5014934;28;20540;-73
2023/06/03 00:44:02;;;;;;;4.40;1.25;;;11.60;99.90;;;;;;5018307;28;20057;-72
2023/06/03 00:46:29;;;;;;;3.38;1.00;;;11.60;99.90;;;;;;5015277;28;20050;-72
2023/06/03 00:48:55;;;;;;;3.22;1.10;;;11.60;99.90;;;;;;5015481;28;20117;-72
2023/06/03 00:51:21;;;;;;;4.43;1.25;;;11.50;99.90;;;;;;5014988;28;20446;-73
2023/06/03 00:53:47;;;;;;;5.45;1.00;;;11.60;99.90;;;;;;5020281;28;20048;-73
2023/06/03 00:56:16;;;;;;;3.03;0.82;;;11.60;99.90;;;;;;5014973;28;20038;-73
2023/06/03 00:58:41;;;;;;;3.42;1.00;;;11.50;99.90;;;;;;5013670;28;20054;-73
2023/06/03 01:01:07;;;;;;;2.95;0.88;;;11.50;99.90;;;;;;4995403;28;20508;-73
2023/06/03 01:03:33;;;;;;;4.40;1.05;;;11.50;99.90;;;;;;5013775;28;20033;-72
2023/06/03 01:06:21;;;;;;;3.20;1.10;;;11.50;99.90;;;;;;5004140;28;20041;-73
2023/06/03 01:09:06;;;;;;;6.55;1.25;;;11.40;99.90;;;;;;5029426;28;20124;-73
2023/06/03 01:11:52;;;;;;;2.83;0.90;;;11.40;99.90;;;;;;5014608;28;20054;-73
2023/06/03 01:14:32;;;;;;;4.05;1.23;;;11.40;99.90;;;;;;4999980;28;20077;-72
2023/06/03 01:16:59;;;;;;;3.58;0.93;;;11.30;99.90;;;;;;4999413;28;20050;-73
2023/06/03 01:19:48;;;;;;;3.05;1.00;;;11.30;99.90;;;;;;5006992;28;20773;-73
2023/06/03 01:22:21;;;;;;;5.50;1.10;;;11.30;99.90;;;;;;5003952;28;20049;-74
2023/06/03 01:24:50;;;;;;;5.97;1.17;;;11.20;99.90;;;;;;5022353;28;20053;-74
2023/06/03 01:27:17;;;;;;;3.55;1.10;;;11.20;99.90;;;;;;5017124;28;20393;-73
2023/06/03 01:29:44;;;;;;;3.80;1.17;;;11.20;99.90;;;;;;5024411;28;20110;-73
2023/06/03 01:32:13;;;;;;;2.08;0.90;;;11.20;99.90;;;;;;5022395;28;20153;-73
2023/06/03 01:34:41;;;;;;;3.15;1.10;;;11.10;99.90;;;;;;5001877;28;20050;-74
2023/06/03 01:37:09;;;;;;;2.97;0.80;;;11.10;99.90;;;;;;5016789;28;20603;-75
2023/06/03 01:39:37;;;;;;;3.95;0.88;;;11.10;99.90;;;;;;5017893;28;20596;-74
2023/06/03 01:42:03;;;;;;;2.70;0.82;;;11.00;99.90;;;;;;5019929;28;20563;-74
2023/06/03 01:44:29;;;;;;;2.97;1.35;;;11.00;99.90;;;;;;5021143;28;20419;-74
2023/06/03 01:46:55;;;;;;;4.28;1.00;;;11.00;99.90;;;;;;5018674;28;20344;-74
2023/06/03 01:49:21;;;;;;;2.10;0.80;;;10.90;99.90;;;;;;5019028;28;20057;-73
2023/06/03 01:51:47;;;;;;;4.00;1.02;;;10.90;99.90;;;;;;5018433;28;20052;-74
2023/06/03 01:54:12;;;;;;;6.95;1.00;;;10.90;99.90;;;;;;5007002;28;20371;-74
2023/06/03 01:56:38;;;;;;;3.45;0.90;;;10.90;99.90;;;;;;4999303;28;20490;-74
2023/06/03 01:59:04;;;;;;;3.53;0.90;;;10.80;99.90;;;;;;5025358;28;20046;-73
2023/06/03 02:01:30;;;;;;;2.42;0.80;;;10.80;99.90;;;;;;5021815;28;20477;-74
2023/06/03 02:03:56;;;;;;;3.67;0.85;;;10.80;99.90;;;;;;5019217;28;20688;-74
2023/06/03 02:06:21;;;;;;;3.08;1.20;;;10.80;99.90;;;;;;5017387;28;20116;-74
2023/06/03 02:08:47;;;;;;;3.10;0.95;;;10.80;99.90;;;;;;5024428;28;20708;-74
2023/06/03 02:11:13;;;;;;;5.38;1.15;;;10.70;99.90;;;;;;5020677;28;20513;-74
2023/06/03 02:13:39;;;;;;;3.65;1.15;;;10.70;99.90;;;;;;5020504;28;20104;-74
2023/06/03 02:16:06;;;;;;;3.53;0.90;;;10.70;99.90;;;;;;5019804;28;20527;-73
2023/06/03 02:18:31;;;;;;;3.13;1.08;;;10.80;99.90;;;;;;5019802;28;20088;-73
2023/06/03 02:20:57;;;;;;;4.07;1.10;;;10.60;99.90;;;;;;5018330;28;20066;-74
2023/06/03 02:23:23;;;;;;;5.10;1.15;;;10.60;99.90;;;;;;5018945;28;20087;-74
2023/06/03 02:25:49;;;;;;;3.65;1.08;;;10.60;99.90;;;;;;5017399;28;20435;-74
2023/06/03 02:28:16;;;;;;;2.88;1.00;;;10.60;99.90;;;;;;5019188;28;20041;-73
2023/06/03 02:30:42;;;;;;;3.65;0.98;;;10.60;99.90;;;;;;5019671;28;20057;-74
2023/06/03 02:33:08;;;;;;;4.35;1.10;;;10.60;99.90;;;;;;5022183;28;20045;-74
2023/06/03 02:35:35;;;;;;;6.50;1.30;;;10.50;99.90;;;;;;5019240;28;20400;-73
2023/06/03 02:38:00;;;;;;;3.72;1.05;;;10.50;99.90;;;;;;5020788;28;20045;-73
2023/06/03 02:40:26;;;;;;;3.85;1.23;;;10.50;99.90;;;;;;5023606;28;20045;-74
2023/06/03 02:42:52;;;;;;;4.72;1.23;;;10.40;99.90;;;;;;5019474;28;20438;-74
2023/06/03 02:45:17;;;;;;;3.67;1.20;;;10.50;99.90;;;;;;5024925;28;20041;-73
2023/06/03 02:47:43;;;;;;;7.22;1.55;;;10.40;99.90;;;;;;5023167;28;20037;-74
2023/06/03 02:50:09;;;;;;;7.70;1.23;;;10.40;99.90;;;;;;5025861;28;20080;-74
2023/06/03 02:52:35;;;;;;;3.25;0.80;;;10.40;99.90;;;;;;5026001;28;20502;-73
2023/06/03 02:55:01;;;;;;;2.90;1.00;;;10.40;99.90;;;;;;5025566;28;20033;-73
2023/06/03 02:57:27;;;;;;;4.47;1.10;;;10.30;99.90;;;;;;5021143;28;20038;-73
2023/06/03 02:59:53;;;;;;;6.82;1.30;;;10.30;99.90;;;;;;5019198;28;20049;-73
2023/06/03 03:02:24;;;;;;;3.00;1.13;;;10.30;99.90;;;;;;4991136;28;20045;-73
2023/06/03 03:04:49;;;;;;;3.55;1.10;;;10.30;99.90;;;;;;5007460;28;20152;-74
2023/06/03 03:07:17;;;;;;;7.45;1.33;;;10.20;99.90;;;;;;5007729;28;20460;-74
2023/06/03 03:09:42;;;;;;;4.45;1.20;;;10.20;99.90;;;;;;5023579;28;20049;-73
2023/06/03 03:12:09;;;;;;;2.75;1.05;;;10.20;99.90;;;;;;5010999;28;20133;-74
2023/06/03 03:14:34;;;;;;;3.03;1.00;;;10.20;99.90;;;;;;5013829;28;20041;-74
2023/06/03 03:17:00;;;;;;;3.15;1.10;;;10.10;99.90;;;;;;5025824;28;20418;-74
2023/06/03 03:19:26;;;;;;;6.25;1.20;;;10.40;99.90;;;;;;5026659;28;20055;-73
2023/06/03 03:21:51;;;;;;;4.25;1.15;;;10.10;99.90;;;;;;5026897;28;20058;-73
2023/06/03 03:24:17;;;;;;;5.20;1.25;;;10.10;99.90;;;;;;5023331;28;20052;-74
2023/06/03 03:26:43;;;;;;;6.25;1.20;;;10.10;99.90;;;;;;5025523;28;20128;-74
2023/06/03 03:29:08;;;;;;;9.05;1.55;;;10.10;99.90;;;;;;5003622;28;20407;-73
2023/06/03 03:31:34;;;;;;;4.88;1.40;;;10.00;99.90;;;;;;5023478;28;20076;-74
2023/06/03 03:34:04;;;;;;;2.72;1.10;;;10.40;99.90;;;;;;5020786;28;20045;-74
2023/06/03 03:36:30;;;;;;;2.97;1.00;;;10.00;99.90;;;;;;5009175;28;20049;-73
2023/06/03 03:39:04;;;;;;;4.28;1.55;;;10.00;99.90;;;;;;5005262;28;20149;-73
2023/06/03 03:41:31;;;;;;;2.90;1.15;;;10.00;99.90;;;;;;5008965;28;20142;-74
2023/06/03 03:43:57;;;;;;;2.40;1.00;;;10.20;99.90;;;;;;5025284;28;20041;-74
2023/06/03 03:46:23;;;;;;;3.22;0.93;;;10.00;99.90;;;;;;5018379;28;20038;-73
2023/06/03 03:48:49;;;;;;;2.85;1.05;;;10.00;99.90;;;;;;5023553;28;20505;-74
2023/06/03 03:51:14;;;;;;;5.60;1.45;;;10.20;99.90;;;;;;5009900;28;20044;-74
2023/06/03 03:53:45;;;;;;;6.50;1.27;;;10.00;99.90;;;;;;5024686;28;20053;-74
2023/06/03 03:56:21;;;;;;;3.35;1.27;;;10.00;99.90;;;;;;5008555;28;20092;-73
2023/06/03 03:58:48;;;;;;;3.08;1.10;;;10.00;99.90;;;;;;5009350;28;20049;-74
2023/06/03 04:01:17;;;;;;;6.15;1.23;;;10.00;99.90;;;;;;5012470;28;20048;-74
2023/06/03 04:03:49;;;;;;;2.70;1.15;;;10.00;99.90;;;;;;5024422;28;20124;-73
2023/06/03 04:06:32;;;;;;;5.75;1.45;;;10.00;99.90;;;;;;5008391;28;21573;-74
2023/06/03 04:08:58;;;;;;;4.40;1.30;;;10.00;99.90;;;;;;5020595;28;20608;-74
2023/06/03 04:11:29;;;;;;;5.10;1.00;;;10.00;99.90;;;;;;5008022;28;20041;-74
2023/06/03 04:13:57;;;;;;;4.43;1.20;;;10.00;99.90;;;;;;5010928;28;20521;-74
2023/06/03 04:16:54;;;;;;;3.50;1.30;;;10.00;99.90;;;;;;5005650;28;20434;-74
2023/06/03 04:19:36;;;;;;;3.85;1.30;;;10.00;99.90;;;;;;4994860;28;20054;-73
2023/06/03 04:22:07;;;;;;;3.50;1.10;;;10.00;99.90;;;;;;5016487;28;20125;-74
2023/06/03 04:24:34;;;;;;;6.88;1.30;;;10.00;99.90;;;;;;5014121;28;20050;-74
2023/06/03 04:27:06;;;;;;;3.20;1.17;;;10.00;99.90;;;;;;5016036;28;20046;-73
2023/06/03 04:29:32;;;;;;;3.25;1.10;;;10.00;99.90;;;;;;5012951;28;20122;-74
2023/06/03 04:31:59;;;;;;;2.90;1.20;;;10.10;99.90;;;;;;5026017;28;20049;-73
2023/06/03 04:34:29;;;;;;;4.65;1.30;;;10.20;99.90;;;;;;5026308;28;20107;-74
2023/06/03 04:36:55;;;;;;;3.65;1.25;;;10.50;99.90;;;;;;5018875;28;20510;-74
2023/06/03 04:39:20;;;;;;;1.77;0.90;;;10.80;99.90;;;;;;5009747;28;20049;-74
2023/06/03 04:41:46;;;;;;;2.17;1.00;;;11.10;99.90;;;;;;5002145;28;20139;-73
2023/06/03 04:44:13;;;;;;;5.40;1.05;;;11.40;99.90;;;;;;5014994;28;20057;-73
2023/06/03 04:46:39;;;;;;;4.53;1.02;;;11.70;99.90;;;;;;5026578;28;20524;-73
2023/06/03 04:49:08;;;;;;;3.72;1.00;;;12.00;99.90;;;;;;5006699;28;20049;-74
2023/06/03 04:51:34;;;;;;;4.22;1.38;;;12.30;99.90;;;;;;5026077;28;20408;-74
2023/06/03 04:54:01;;;;;;;5.10;1.17;;;12.60;99.90;;;;;;5013728;28;20042;-73
2023/06/03 04:56:29;;;;;;;3.80;0.90;;;12.90;99.90;;;;;;5030871;28;20054;-74
2023/06/03 04:59:03;;;;;;;5.53;1.20;;;13.20;99.90;;;;;;5011144;28;20053;-73
2023/06/03 05:01:31;;;;;;;3.28;1.10;;;13.40;99.90;;;;;;5028491;28;20083;-73
2023/06/03 05:03:57;;;;;;;4.00;1.20;;;13.70;99.90;;;;;;5017272;28;20042;-73
2023/06/03 05:06:23;;;;;;;4.32;1.20;;;13.90;99.90;;;;;;5002008;28;20045;-75
2023/06/03 05:08:50;;;;;;;4.05;0.95;;;14.10;99.90;;;;;;5018792;28;20088;-74
2023/06/03 05:11:17;;;;;;;5.53;1.17;;;14.10;99.90;;;;;;5026514;28;20506;-74
2023/06/03 05:13:44;;;;;;;5.55;1.00;;;14.00;99.90;;;;;;5030550;28;20509;-73
2023/06/03 05:16:10;;;;;;;3.92;1.05;;;13.80;99.90;;;;;;5030407;28;20053;-74
2023/06/03 05:18:36;;;;;;;3.90;1.20;;;13.60;99.90;;;;;;5020456;28;20120;-74
2023/06/03 05:21:02;;;;;;;5.88;1.38;;;13.50;99.90;;;;;;5022566;28;20121;-74
2023/06/03 05:23:28;;;;;;;5.18;1.20;;;13.50;99.90;;;;;;5014532;28;20069;-74
2023/06/03 05:25:54;;;;;;;4.70;1.25;;;13.50;99.90;;;;;;5023342;28;20092;-73
2023/06/03 05:28:20;;;;;;;2.47;1.08;;;13.50;99.90;;;;;;5009270;28;20046;-73
2023/06/03 05:30:45;;;;;;;2.72;1.10;;;13.50;99.90;;;;;;5010435;28;20058;-73
2023/06/03 05:33:27;;;;;;;4.78;1.00;;;13.40;99.90;;;;;;5009581;28;20132;-74
2023/06/03 05:35:53;;;;;;;3.42;1.10;;;13.20;99.90;;;;;;5010431;28;20133;-73
2023/06/03 05:38:20;;;;;;;3.65;1.13;;;13.10;99.90;;;;;;5025612;28;20120;-73
2023/06/03 05:40:48;;;;;;;5.75;1.70;;;13.10;99.90;;;;;;5026665;28;20053;-73
2023/06/03 05:43:15;;;;;;;3.95;1.23;;;13.00;99.90;;;;;;4998262;28;20064;-73
2023/06/03 05:45:41;;;;;;;5.03;1.40;;;12.90;99.90;;;;;;5029463;28;20658;-73
2023/06/03 05:48:07;;;;;;;4.03;1.17;;;12.80;99.90;;;;;;5013901;28;20208;-74
2023/06/03 05:50:36;;;;;;;5.65;1.42;;;12.80;99.90;;;;;;5014505;28;20116;-74
2023/06/03 05:53:03;;;;;;;4.00;1.08;;;12.70;99.90;;;;;;5016774;28;20079;-73
2023/06/03 05:55:29;;;;;;;3.42;1.33;;;12.70;99.90;;;;;;5001862;28;20037;-73
2023/06/03 05:57:55;;;;;;;4.03;1.50;;;12.70;99.90;;;;;;5016304;28;20084;-73
2023/06/03 06:00:21;;;;;;;4.30;2.05;;;12.60;99.90;;;;;;5023251;28;20068;-74
2023/06/03 06:02:47;;;;;;;4.95;1.20;;;12.70;99.90;;;;;;5002403;28;20046;-73
2023/06/03 06:05:14;;;;;;;6.10;1.60;;;12.70;99.90;;;;;;5006968;28;20050;-74
2023/06/03 06:07:40;;;;;;;2.80;1.38;;;12.60;99.90;;;;;;5019563;28;20034;-74
2023/06/03 06:10:06;;;;;;;5.05;1.15;;;12.60;99.90;;;;;;5018160;28;20049;-73
2023/06/03 06:12:31;;;;;;;3.55;1.30;;;12.60;99.90;;;;;;5012635;28;20153;-73
2023/06/03 06:14:57;;;;;;;4.65;1.27;;;12.60;99.90;;;;;;5014896;28;20505;-74
2023/06/03 06:17:23;;;;;;;5.47;1.55;;;12.60;99.90;;;;;;5009780;28;20042;-74
2023/06/03 06:19:49;;;;;;;6.88;1.23;;;12.70;99.90;;;;;;5023693;28;20503;-74
2023/06/03 06:22:15;;;;;;;3.75;1.20;;;12.70;99.90;;;;;;5020475;28;20057;-74
2023/06/03 06:24:42;;;;;;;5.88;1.45;;;12.80;99.90;;;;;;5017028;28;20077;-74
2023/06/03 06:27:08;;;;;;;5.13;1.40;;;12.90;99.90;;;;;;5017444;28;20056;-74
2023/06/03 06:29:33;;;;;;;3.72;1.25;;;12.90;99.90;;;;;;5014879;28;20046;-73
2023/06/03 06:32:00;;;;;;;4.15;1.30;;;13.00;99.90;;;;;;5022009;28;20124;-73
2023/06/03 06:34:29;;;;;;;4.45;1.30;;;13.10;99.90;;;;;;5017159;28;20049;-74
2023/06/03 06:36:56;;;;;;;3.97;1.20;;;13.10;99.90;;;;;;5019076;28;20049;-73
2023/06/03 06:39:33;;;;;;;7.32;1.48;;;13.20;99.90;;;;;;5022910;28;20038;-73
2023/06/03 06:42:09;;;;;;;4.43;1.00;;;13.20;99.90;;;;;;5024044;28;20145;-73
2023/06/03 06:44:48;;;;;;;5.22;1.08;;;13.30;99.90;;;;;;5010063;28;20046;-73
2023/06/03 06:47:26;;;;;;;3.80;1.10;;;13.30;99.90;;;;;;5022368;28;20049;-73
2023/06/03 06:49:55;;;;;;;4.22;1.23;;;13.40;99.90;;;;;;5027993;28;20095;-73
2023/06/03 06:52:25;;;;;;;3.50;0.98;;;13.40;99.90;;;;;;5013386;28;20308;-74
2023/06/03 06:54:54;;;;;;;4.05;1.10;;;13.40;99.90;;;;;;5038466;28;20065;-73
2023/06/03 06:57:21;;;;;;;3.17;1.13;;;13.50;99.90;;;;;;5012218;28;20398;-74
2023/06/03 06:59:48;;;;;;;3.08;0.80;;;13.60;99.90;;;;;;5011682;28;20041;-73
2023/06/03 07:02:14;;;;;;;2.88;1.02;;;13.60;99.90;;;;;;5003475;28;20093;-73
2023/06/03 07:04:40;;;;;;;4.05;1.20;;;13.70;99.90;;;;;;5025969;28;20114;-74
2023/06/03 07:07:06;;;;;;;4.57;1.30;;;13.70;99.90;;;;;;5023016;28;20722;-73
2023/06/03 07:09:31;;;;;;;3.58;1.15;;;13.90;99.90;;;;;;5020627;28;20072;-74
2023/06/03 07:11:58;;;;;;;4.38;0.95;;;14.00;99.90;;;;;;4994768;28;20046;-74
2023/06/03 07:14:23;;;;;;;5.28;1.02;;;14.10;99.90;;;;;;5009436;28;20113;-73
2023/06/03 07:16:49;;;;;;;3.10;1.00;;;14.20;99.90;;;;;;4995408;28;20053;-73
2023/06/03 07:19:15;;;;;;;3.92;1.17;;;14.40;99.90;;;;;;5014855;28;20046;-74
2023/06/03 07:21:40;;;;;;;4.13;1.25;;;14.60;99.90;;;;;;5016309;28;20049;-73
2023/06/03 07:24:08;;;;;;;3.28;1.20;;;14.80;99.90;;;;;;5017092;28;20060;-73
2023/06/03 07:26:35;;;;;;;3.17;0.90;;;14.90;99.90;;;;;;5017327;28;20055;-74
2023/06/03 07:29:01;;;;;;;4.55;0.98;;;15.10;99.90;;;;;;5009183;28;20049;-73
2023/06/03 07:31:31;;;;;;;6.90;1.02;;;15.20;99.90;;;;;;5005595;28;20068;-74
2023/06/03 07:33:56;;;;;;;2.35;1.00;;;15.20;99.90;;;;;;5012421;28;20045;-73
2023/06/03 07:36:26;;;;;;;2.83;0.85;;;15.10;99.90;;;;;;5024357;28;20049;-73
2023/06/03 07:39:06;;;;;;;4.20;0.88;;;15.20;99.90;;;;;;5010072;28;20426;-73
2023/06/03 07:41:39;;;;;;;3.47;1.00;;;15.10;99.90;;;;;;5008536;28;20072;-74
2023/06/03 07:44:06;;;;;;;3.50;0.93;;;15.10;99.90;;;;;;5008535;28;20052;-73
2023/06/03 07:46:41;;;;;;;3.20;1.10;;;15.10;99.90;;;;;;5011011;28;20045;-73
2023/06/03 07:49:12;;;;;;;3.13;0.95;;;15.00;99.90;;;;;;5010234;28;20038;-73
2023/06/03 07:51:47;;;;;;;3.13;0.95;;;15.00;99.90;;;;;;5007922;28;20054;-73
2023/06/03 07:54:13;;;;;;;4.25;1.00;;;15.00;99.90;;;;;;5009060;28;20059;-74
2023/06/03 07:56:40;;;;;;;2.20;0.80;;;15.00;99.90;;;;;;5003061;28;20056;-73
2023/06/03 07:59:08;;;;;;;2.35;0.85;;;15.00;99.90;;;;;;5012117;28;20083;-73
2023/06/03 08:01:35;;;;;;;3.55;1.20;;;14.90;99.90;;;;;;5005609;28;20048;-73
2023/06/03 08:04:04;;;;;;;2.40;0.90;;;15.00;99.90;;;;;;5005011;28;20049;-74
2023/06/03 08:06:32;;;;;;;4.43;1.23;;;15.00;99.90;;;;;;5018883;28;20041;-73
2023/06/03 08:08:59;;;;;;;3.47;1.13;;;15.00;99.90;;;;;;5001136;28;20060;-73
2023/06/03 08:11:25;;;;;;;2.80;1.10;;;15.10;99.90;;;;;;5006992;28;20055;-74
2023/06/03 08:13:55;;;;;;;4.22;1.60;;;15.10;99.90;;;;;;5014924;28;20053;-73
2023/06/03 08:16:21;;;;;;;2.92;1.00;;;15.20;99.90;;;;;;5014138;28;20050;-74
2023/06/03 08:18:54;;;;;;;5.97;1.38;;;15.30;99.90;;;;;;5016022;28;20080;-74
2023/06/03 08:21:28;;;;;;;4.15;1.73;;;15.40;99.90;;;;;;5013469;28;20565;-73
2023/06/03 08:23:53;;;;;;;4.35;1.00;;;15.50;99.90;;;;;;4995492;28;20057;-73
2023/06/03 08:26:20;;;;;;;5.47;1.10;;;15.70;99.90;;;;;;5014160;28;20464;-74
2023/06/03 08:28:46;;;;;;;3.90;1.08;;;15.80;99.90;;;;;;5001756;28;20374;-74
2023/06/03 08:31:13;;;;;;;3.42;0.98;;;16.00;99.90;;;;;;5016184;28;20142;-73
2023/06/03 08:33:38;;;;;;;4.22;0.90;;;16.20;99.90;;;;;;5031192;28;20166;-74
2023/06/03 08:36:04;;;;;;;5.63;1.10;;;16.30;99.90;;;;;;5013535;28;20045;-74
2023/06/03 08:38:31;;;;;;;7.25;1.10;;;16.50;99.90;;;;;;5016093;28;20561;-73
2023/06/03 08:40:57;;;;;;;4.47;1.25;;;16.60;99.90;;;;;;5018300;28;20115;-73
2023/06/03 08:43:32;;;;;;;4.30;1.10;;;16.80;99.90;;;;;;5010059;28;20048;-73
2023/06/03 08:46:08;;;;;;;2.47;0.80;;;16.90;99.90;;;;;;5027420;28;20382;-73
2023/06/03 08:48:40;;;;;;;5.35;1.02;;;17.00;99.90;;;;;;5032788;28;20053;-73
2023/06/03 08:51:06;;;;;;;3.10;0.90;;;17.10;99.90;;;;;;5036996;28;20057;-72
2023/06/03 08:53:50;;;;;;;2.85;1.00;;;17.30;99.90;;;;;;5021692;28;20088;-73
2023/06/03 08:56:20;;;;;;;4.28;0.90;;;17.30;99.90;;;;;;5014409;28;20048;-74
2023/06/03 08:58:54;;;;;;;1.50;0.70;;;17.40;99.40;;;;;;5017013;28;20110;-73
2023/06/03 09:01:32;;;;;;;2.70;0.98;;;17.50;99.90;;;;;;5012682;28;20071;-73
2023/06/03 09:04:00;;;;;;;3.58;1.00;;;17.60;99.20;;;;;;5014734;28;20088;-73
2023/06/03 09:06:26;;;;;;;2.38;0.93;;;17.70;99.60;;;;;;5010648;28;20409;-73
2023/06/03 09:08:53;;;;;;;4.28;0.95;;;17.80;98.90;;;;;;5017428;28;20138;-74
2023/06/03 09:11:20;;;;;;;2.65;0.80;;;17.80;99.10;;;;;;4998986;28;20060;-73
2023/06/03 09:13:46;;;;;;;1.98;0.82;;;17.90;98.80;;;;;;5020421;28;20049;-74
2023/06/03 09:16:13;;;;;;;4.05;1.10;;;18.10;96.50;;;;;;5017329;28;20096;-73
2023/06/03 09:18:39;;;;;;;3.38;0.90;;;18.10;96.30;;;;;;5018712;28;20049;-73
2023/06/03 09:21:09;;;;;;;4.90;0.90;;;18.10;95.90;;;;;;5018783;28;20103;-74
2023/06/03 09:23:40;;;;;;;2.40;0.73;;;18.20;96.60;;;;;;5014953;28;20045;-73
2023/06/03 09:26:06;;;;;;;2.83;0.97;;;18.20;97.20;;;;;;5008694;28;20076;-74
2023/06/03 09:28:34;;;;;;;2.97;0.80;;;18.30;95.30;;;;;;5011655;28;20295;-74
2023/06/03 09:31:01;;;;;;;2.15;0.70;;;18.40;94.60;;;;;;5007860;28;20046;-74
2023/06/03 09:33:27;;;;;;;4.00;0.80;;;18.40;94.50;;;;;;5019622;28;21686;-73
2023/06/03 09:36:06;;;;;;;2.17;0.90;;;18.50;93.00;;;;;;5002882;28;20052;-73
2023/06/03 09:38:56;;;;;;;4.18;0.65;;;18.50;92.80;;;;;;5005309;28;20048;-74
2023/06/03 09:41:26;;;;;;;1.95;0.82;;;18.50;91.60;;;;;;5008007;28;20041;-74
2023/06/03 09:44:03;;;;;;;3.03;1.08;;;18.50;91.00;;;;;;5019789;28;20612;-74
2023/06/03 09:46:30;;;;;;;3.20;0.90;;;18.50;89.70;;;;;;5015660;28;20045;-75
2023/06/03 09:49:17;;;;;;;4.35;1.10;;;18.50;91.60;;;;;;5003999;28;20149;-74
2023/06/03 09:51:44;;;;;;;2.08;0.80;;;18.60;92.40;;;;;;5004840;28;20119;-75
2023/06/03 09:54:18;;;;;;;2.13;0.90;;;18.60;91.80;;;;;;5008844;28;20147;-74
2023/06/03 09:56:48;;;;;;;2.83;1.00;;;18.70;92.90;;;;;;5011682;28;20171;-75
2023/06/03 09:59:15;;;;;;;2.50;0.77;;;18.80;93.00;;;;;;4991289;28;20045;-74
2023/06/03 10:01:41;;;;;;;2.63;0.90;;;18.80;92.40;;;;;;5004709;28;20053;-75
2023/06/03 10:04:08;;;;;;;2.45;0.73;;;18.90;90.90;;;;;;5008768;28;20379;-74
2023/06/03 10:06:36;;;;;;;3.38;0.95;;;18.90;91.10;;;;;;5004034;28;20795;-75
2023/06/03 10:09:21;;;;;;;4.13;1.08;;;18.90;92.10;;;;;;4992664;28;20112;-74
2023/06/03 10:11:52;;;;;;;4.05;0.93;;;19.00;91.40;;;;;;4993004;28;20136;-74
2023/06/03 10:14:21;;;;;;;3.15;0.82;;;19.00;91.70;;;;;;5011679;28;20103;-74
2023/06/03 10:17:09;;;;;;;3.55;0.80;;;19.10;92.50;;;;;;5007611;28;20215;-74
2023/06/03 10:19:43;;;;;;;2.97;1.00;;;19.20;91.30;;;;;;5013184;28;20049;-75
2023/06/03 10:22:15;;;;;;;1.55;0.70;;;19.20;90.50;;;;;;5001689;28;20064;-75
2023/06/03 10:24:42;;;;;;;2.50;0.85;;;19.30;91.00;;;;;;5000956;28;20045;-75
2023/06/03 10:27:09;;;;;;;5.53;1.00;;;19.20;90.20;;;;;;5008175;28;20782;-74
2023/06/03 10:29:36;;;;;;;4.32;1.10;;;19.20;91.00;;;;;;5009713;28;20041;-75
2023/06/03 10:32:05;;;;;;;2.97;0.80;;;19.30;91.40;;;;;;4987108;28;20070;-75
2023/06/03 10:34:35;;;;;;;3.08;0.80;;;19.30;90.60;;;;;;5035567;28;20045;-74
2023/06/03 10:37:04;;;;;;;2.63;0.70;;;19.30;88.90;;;;;;5006529;28;20077;-74
2023/06/03 10:39:30;;;;;;;5.55;1.08;;;19.40;89.00;;;;;;5015893;28;20049;-74
2023/06/03 10:42:01;;;;;;;3.20;0.93;;;19.30;89.20;;;;;;5017926;28;20049;-74
2023/06/03 10:44:27;;;;;;;;;;;19.40;90.50;;;;;;5020904;28;20052;-74
2023/06/03 10:47:05;;;;;;;4.85;0.90;;;19.40;90.90;;;;;;5017724;28;20328;-74
2023/06/03 10:49:58;;;;;;;3.10;1.00;;;19.50;91.00;;;;;;5012965;28;20239;-74
2023/06/03 10:52:43;;;;;;;2.85;1.00;;;19.60;91.20;;;;;;5017300;28;20072;-74
2023/06/03 10:56:00;;;;;;;5.78;0.93;;;19.60;87.40;;;;;;5017078;28;20604;-74
2023/06/03 10:58:28;;;;;;;3.58;1.10;;;19.60;87.10;;;;;;4993165;28;23448;-74
2023/06/03 11:01:20;;;;;;;2.50;0.85;;;19.60;87.30;;;;;;5018220;28;20053;-74
2023/06/03 11:03:52;;;;;;;2.70;0.88;;;19.60;86.60;;;;;;5021569;28;20085;-74
2023/06/03 11:06:25;;;;;;;4.85;1.00;;;19.60;89.60;;;;;;5022874;28;20512;-73
2023/06/03 11:09:08;;;;;;;2.00;0.80;;;19.60;88.80;;;;;;5015553;28;20073;-74
2023/06/03 11:11:52;;;;;;;4.55;1.20;;;19.70;90.00;;;;;;5024629;28;20056;-72
2023/06/03 11:14:24;;;;;;;3.15;1.05;;;19.80;90.00;;;;;;5015200;28;20054;-73
2023/06/03 11:16:56;;;;;;;4.45;1.02;;;19.90;89.50;;;;;;5013302;28;20513;-73
2023/06/03 11:19:28;;;;;;;5.07;1.35;;;19.90;88.80;;;;;;5014892;28;20120;-73
2023/06/03 11:21:54;;;;;;;2.88;0.85;;;19.90;86.40;;;;;;5016569;28;20073;-74
2023/06/03 11:24:43;;;;;;;8.10;1.98;;;19.90;85.00;;;;;;5014711;28;20124;-72
2023/06/03 11:27:18;;;;;;;3.40;0.90;;;19.90;84.10;;;;;;5011480;28;20407;-72
2023/06/03 11:29:48;;;;;;;4.18;0.90;;;19.80;82.40;;;;;;4994058;28;20430;-71
2023/06/03 11:32:26;;;;;;;3.47;0.93;;;19.90;84.40;;;;;;5011185;28;20053;-71
2023/06/03 11:35:25;;;;;;;3.25;1.05;;;19.90;86.80;;;;;;5015468;28;20096;-72
2023/06/03 11:37:52;;;;;;;2.55;0.90;;;19.90;87.50;;;;;;5012086;28;20061;-71
2023/06/03 11:40:22;;;;;;;2.30;0.90;;;20.00;88.60;;;;;;5013663;28;20121;-72
2023/06/03 11:42:51;;;;;;;4.40;0.90;;;20.00;85.10;;;;;;5016192;28;20071;-71
2023/06/03 11:45:20;;;;;;;5.35;1.00;;;20.00;84.00;;;;;;5016465;28;20308;-71
2023/06/03 11:47:53;;;;;;;4.07;0.80;;;20.10;83.00;;;;;;5015158;28;20075;-71
2023/06/03 11:50:20;;;;;;;5.95;0.98;;;20.10;82.10;;;;;;5013022;28;20099;-71
2023/06/03 11:52:46;;;;;;;3.72;1.00;;;20.10;85.50;;;;;;5010424;28;20156;-71
2023/06/03 11:55:22;;;;;;;2.40;0.90;;;20.10;84.80;;;;;;5010671;28;20125;-71
2023/06/03 11:57:48;;;;;;;3.45;0.85;;;20.20;82.00;;;;;;5014108;28;20044;-71
2023/06/03 12:00:15;;;;;;;3.90;1.10;;;20.20;80.50;;;;;;5014154;28;20064;-71
2023/06/03 12:02:45;;;;;;;4.07;0.70;;;20.10;77.90;;;;;;5027663;28;20081;-70
2023/06/03 12:05:12;;;;;;;3.20;0.93;;;20.10;81.60;;;;;;5012046;28;20459;-70
2023/06/03 12:07:38;;;;;;;4.47;1.00;;;20.20;81.20;;;;;;5012988;28;20241;-71
2023/06/03 12:10:04;;;;;;;4.10;0.80;;;20.20;79.40;;;;;;4996997;28;20049;-74
2023/06/03 12:12:33;;;;;;;3.13;0.73;;;20.20;81.00;;;;;;5026499;28;20050;-71
2023/06/03 12:15:05;;;;;;;2.83;0.80;;;20.20;79.00;;;;;;5009300;28;20056;-72
2023/06/03 12:17:31;;;;;;;3.92;1.10;;;20.20;80.80;;;;;;5022701;28;20044;-71
2023/06/03 12:20:00;;;;;;;5.25;0.93;;;20.20;80.50;;;;;;5039623;28;20550;-72
2023/06/03 12:22:27;;;;;;;4.82;1.00;;;20.20;78.90;;;;;;5025140;28;20073;-71
2023/06/03 12:24:53;;;;;;;2.85;0.93;;;20.20;76.70;;;;;;4998419;28;21704;-71
2023/06/03 12:27:24;;;;;;;3.72;1.10;;;20.10;76.40;;;;;;5019475;28;20048;-70
2023/06/03 12:29:55;;;;;;;2.72;1.00;;;20.10;78.00;;;;;;5024094;28;21568;-70
2023/06/03 12:32:21;;;;;;;;;;;20.00;77.00;;;;;;5023410;28;20055;-70
2023/06/03 12:34:47;;;;;;;4.10;0.80;;;20.00;79.20;;;;;;5025321;28;19925;-69
2023/06/03 12:37:27;;;;;;;2.78;0.88;;;20.10;80.80;;;;;;5039115;28;20047;-70
2023/06/03 12:39:53;;;;;;;3.73;1.00;;;20.20;81.90;;;;;;4998110;28;20049;-71
2023/06/03 12:42:21;;;;;;;3.33;1.10;;;20.30;81.10;;;;;;5022562;28;20315;-70
2023/06/03 12:44:52;;;;;;;5.43;0.95;;;20.40;80.60;;;;;;5016813;28;20053;-71
2023/06/03 12:47:20;;;;;;;1.63;0.80;;;20.30;78.60;;;;;;5024556;28;20053;-70
2023/06/03 12:50:07;;;;;;;2.97;0.80;;;20.30;78.70;;;;;;5025185;28;20045;-70
2023/06/03 12:52:36;;;;;;;2.10;0.90;;;20.30;79.00;;;;;;5025357;28;20508;-71
2023/06/03 12:55:03;;;;;;;2.70;1.10;;;20.30;79.00;;;;;;5017291;28;20120;-71
2023/06/03 12:57:33;;;;;;;3.70;1.15;;;20.30;79.10;;;;;;5024151;28;20049;-70